sensor_id;sensor_type;location;lat;lon;timestamp;P1;durP1;ratioP1;P2;durP2;ratioP2
32393;SDS011;18853;45.426;9.206;2023-04-01T00:01:04;17.52;;;12.95;;
32393;SDS011;18853;45.426;9.206;2023-04-01T00:03:31;14.48;;;12.05;;
32393;SDS011;18853;45.426;9.206;2023-04-01T00:05:58;14.98;;;13.05;;
32393;SDS011;18853;45.426;9.206;2023-04-01T00:08:24;16.55;;;12.98;;
32393;SDS011;18853;45.426;9.206;2023-04-01T00:10:51;17.23;;;13.13;;
32393;SDS011;18853;45.426;9.206;2023-04-01T00:13:18;15.88;;;12.90;;
32393;SDS011;18853;45.426;9.206;2023-04-01T00:15:45;14.52;;;12.65;;
32393;SDS011;18853;45.426;9.206;2023-04-01T00:18:11;14.85;;;11.65;;
32393;SDS011;18853;45.426;9.206;2023-04-01T00:20:37;14.20;;;12.75;;
32393;SDS011;18853;45.426;9.206;2023-04-01T00:23:03;15.10;;;12.38;;
32393;SDS011;18853;45.426;9.206;2023-04-01T00:25:30;16.67;;;12.35;;
32393;SDS011;18853;45.426;9.206;2023-04-01T00:27:56;14.40;;;12.57;;
32393;SDS011;18853;45.426;9.206;2023-04-01T00:30:21;17.25;;;13.00;;
32393;SDS011;18853;45.426;9.206;2023-04-01T00:32:50;17.33;;;12.90;;
32393;SDS011;18853;45.426;9.206;2023-04-01T00:35:17;15.85;;;12.00;;
32393;SDS011;18853;45.426;9.206;2023-04-01T00:37:43;15.07;;;12.85;;
32393;SDS011;18853;45.426;9.206;2023-04-01T00:40:11;16.20;;;12.55;;
32393;SDS011;18853;45.426;9.206;2023-04-01T00:43:03;15.00;;;12.38;;
32393;SDS011;18853;45.426;9.206;2023-04-01T00:45:36;16.48;;;12.68;;
32393;SDS011;18853;45.426;9.206;2023-04-01T00:48:18;14.90;;;12.60;;
32393;SDS011;18853;45.426;9.206;2023-04-01T00:53:40;13.52;;;12.10;;
32393;SDS011;18853;45.426;9.206;2023-04-01T00:56:12;16.63;;;12.80;;
32393;SDS011;18853;45.426;9.206;2023-04-01T00:58:44;13.35;;;11.60;;
32393;SDS011;18853;45.426;9.206;2023-04-01T01:01:13;13.70;;;12.23;;
32393;SDS011;18853;45.426;9.206;2023-04-01T01:03:39;14.52;;;11.73;;
32393;SDS011;18853;45.426;9.206;2023-04-01T01:06:14;14.55;;;11.40;;
32393;SDS011;18853;45.426;9.206;2023-04-01T01:11:36;15.60;;;12.27;;
32393;SDS011;18853;45.426;9.206;2023-04-01T01:14:07;15.57;;;12.00;;
32393;SDS011;18853;45.426;9.206;2023-04-01T01:16:43;13.02;;;10.68;;
32393;SDS011;18853;45.426;9.206;2023-04-01T01:21:59;11.75;;;10.00;;
32393;SDS011;18853;45.426;9.206;2023-04-01T01:27:23;13.68;;;10.35;;
32393;SDS011;18853;45.426;9.206;2023-04-01T01:32:38;12.20;;;10.25;;
32393;SDS011;18853;45.426;9.206;2023-04-01T01:38:03;11.13;;;9.88;;
32393;SDS011;18853;45.426;9.206;2023-04-01T01:40:35;11.43;;;9.82;;
32393;SDS011;18853;45.426;9.206;2023-04-01T01:43:05;13.35;;;10.55;;
32393;SDS011;18853;45.426;9.206;2023-04-01T01:45:35;13.05;;;10.05;;
32393;SDS011;18853;45.426;9.206;2023-04-01T01:48:05;12.10;;;10.15;;
32393;SDS011;18853;45.426;9.206;2023-04-01T01:50:34;12.60;;;10.43;;
32393;SDS011;18853;45.426;9.206;2023-04-01T01:53:04;11.55;;;10.07;;
32393;SDS011;18853;45.426;9.206;2023-04-01T01:55:33;13.93;;;10.55;;
32393;SDS011;18853;45.426;9.206;2023-04-01T01:58:23;11.15;;;9.88;;
32393;SDS011;18853;45.426;9.206;2023-04-01T02:01:03;11.07;;;9.18;;
32393;SDS011;18853;45.426;9.206;2023-04-01T02:03:33;12.70;;;9.40;;
32393;SDS011;18853;45.426;9.206;2023-04-01T02:06:01;12.02;;;9.73;;
32393;SDS011;18853;45.426;9.206;2023-04-01T02:08:32;12.02;;;9.60;;
32393;SDS011;18853;45.426;9.206;2023-04-01T02:11:09;11.68;;;9.20;;
32393;SDS011;18853;45.426;9.206;2023-04-01T02:13:42;10.75;;;8.93;;
32393;SDS011;18853;45.426;9.206;2023-04-01T02:17:13;10.57;;;8.93;;
32393;SDS011;18853;45.426;9.206;2023-04-01T02:19:19;11.27;;;8.55;;
32393;SDS011;18853;45.426;9.206;2023-04-01T02:21:51;10.32;;;8.30;;
32393;SDS011;18853;45.426;9.206;2023-04-01T02:24:21;11.85;;;8.82;;
32393;SDS011;18853;45.426;9.206;2023-04-01T02:26:51;11.70;;;8.73;;
32393;SDS011;18853;45.426;9.206;2023-04-01T02:29:20;10.68;;;8.43;;
32393;SDS011;18853;45.426;9.206;2023-04-01T02:31:52;11.32;;;9.23;;
32393;SDS011;18853;45.426;9.206;2023-04-01T02:34:20;13.77;;;9.50;;
32393;SDS011;18853;45.426;9.206;2023-04-01T02:36:47;10.75;;;8.80;;
32393;SDS011;18853;45.426;9.206;2023-04-01T02:39:14;12.05;;;9.75;;
32393;SDS011;18853;45.426;9.206;2023-04-01T02:41:41;13.18;;;10.00;;
32393;SDS011;18853;45.426;9.206;2023-04-01T02:44:09;13.25;;;10.85;;
32393;SDS011;18853;45.426;9.206;2023-04-01T02:46:35;14.00;;;10.95;;
32393;SDS011;18853;45.426;9.206;2023-04-01T02:49:02;13.88;;;10.75;;
32393;SDS011;18853;45.426;9.206;2023-04-01T02:51:28;13.63;;;11.10;;
32393;SDS011;18853;45.426;9.206;2023-04-01T02:53:53;14.30;;;11.70;;
32393;SDS011;18853;45.426;9.206;2023-04-01T02:56:19;12.38;;;10.90;;
32393;SDS011;18853;45.426;9.206;2023-04-01T02:58:46;13.20;;;10.70;;
32393;SDS011;18853;45.426;9.206;2023-04-01T03:01:12;12.82;;;10.80;;
32393;SDS011;18853;45.426;9.206;2023-04-01T03:03:38;12.98;;;9.75;;
32393;SDS011;18853;45.426;9.206;2023-04-01T03:06:04;13.55;;;10.82;;
32393;SDS011;18853;45.426;9.206;2023-04-01T03:08:35;13.93;;;10.38;;
32393;SDS011;18853;45.426;9.206;2023-04-01T03:11:00;13.10;;;10.95;;
32393;SDS011;18853;45.426;9.206;2023-04-01T03:13:26;14.88;;;10.40;;
32393;SDS011;18853;45.426;9.206;2023-04-01T03:15:52;15.95;;;10.82;;
32393;SDS011;18853;45.426;9.206;2023-04-01T03:18:18;11.18;;;9.95;;
32393;SDS011;18853;45.426;9.206;2023-04-01T03:20:44;12.70;;;9.98;;
32393;SDS011;18853;45.426;9.206;2023-04-01T03:23:10;14.07;;;10.10;;
32393;SDS011;18853;45.426;9.206;2023-04-01T03:25:35;13.00;;;9.77;;
32393;SDS011;18853;45.426;9.206;2023-04-01T03:28:01;13.57;;;9.77;;
32393;SDS011;18853;45.426;9.206;2023-04-01T03:30:27;12.43;;;10.18;;
32393;SDS011;18853;45.426;9.206;2023-04-01T03:32:56;11.88;;;10.40;;
32393;SDS011;18853;45.426;9.206;2023-04-01T03:35:22;14.48;;;10.60;;
32393;SDS011;18853;45.426;9.206;2023-04-01T03:37:50;14.25;;;10.30;;
32393;SDS011;18853;45.426;9.206;2023-04-01T03:40:16;13.27;;;9.18;;
32393;SDS011;18853;45.426;9.206;2023-04-01T03:42:41;13.07;;;9.20;;
32393;SDS011;18853;45.426;9.206;2023-04-01T03:45:07;10.95;;;9.10;;
32393;SDS011;18853;45.426;9.206;2023-04-01T03:47:34;12.00;;;9.50;;
32393;SDS011;18853;45.426;9.206;2023-04-01T03:50:00;11.57;;;9.25;;
32393;SDS011;18853;45.426;9.206;2023-04-01T03:52:26;11.57;;;9.55;;
32393;SDS011;18853;45.426;9.206;2023-04-01T03:54:51;12.38;;;9.02;;
32393;SDS011;18853;45.426;9.206;2023-04-01T03:57:17;9.98;;;8.93;;
32393;SDS011;18853;45.426;9.206;2023-04-01T03:59:43;11.48;;;9.30;;
32393;SDS011;18853;45.426;9.206;2023-04-01T04:02:08;10.52;;;8.60;;
32393;SDS011;18853;45.426;9.206;2023-04-01T04:04:34;12.43;;;8.77;;
32393;SDS011;18853;45.426;9.206;2023-04-01T04:07:00;10.38;;;8.63;;
32393;SDS011;18853;45.426;9.206;2023-04-01T04:09:26;12.52;;;8.50;;
32393;SDS011;18853;45.426;9.206;2023-04-01T04:11:52;9.77;;;7.72;;
32393;SDS011;18853;45.426;9.206;2023-04-01T04:14:17;11.13;;;7.72;;
32393;SDS011;18853;45.426;9.206;2023-04-01T04:16:43;11.13;;;8.95;;
32393;SDS011;18853;45.426;9.206;2023-04-01T04:19:10;11.23;;;8.65;;
32393;SDS011;18853;45.426;9.206;2023-04-01T04:21:36;13.43;;;8.70;;
32393;SDS011;18853;45.426;9.206;2023-04-01T04:24:02;10.65;;;8.48;;
32393;SDS011;18853;45.426;9.206;2023-04-01T04:26:28;9.60;;;7.93;;
32393;SDS011;18853;45.426;9.206;2023-04-01T04:28:53;10.95;;;7.60;;
32393;SDS011;18853;45.426;9.206;2023-04-01T04:31:21;9.65;;;7.25;;
32393;SDS011;18853;45.426;9.206;2023-04-01T04:33:48;9.40;;;7.28;;
32393;SDS011;18853;45.426;9.206;2023-04-01T04:36:15;10.57;;;8.15;;
32393;SDS011;18853;45.426;9.206;2023-04-01T04:38:40;9.85;;;7.57;;
32393;SDS011;18853;45.426;9.206;2023-04-01T04:41:10;8.82;;;6.60;;
32393;SDS011;18853;45.426;9.206;2023-04-01T04:43:37;8.88;;;6.90;;
32393;SDS011;18853;45.426;9.206;2023-04-01T04:46:07;10.02;;;6.38;;
32393;SDS011;18853;45.426;9.206;2023-04-01T04:48:34;9.27;;;6.60;;
32393;SDS011;18853;45.426;9.206;2023-04-01T04:51:00;7.53;;;6.07;;
32393;SDS011;18853;45.426;9.206;2023-04-01T04:53:27;7.25;;;5.72;;
32393;SDS011;18853;45.426;9.206;2023-04-01T04:55:53;8.77;;;6.40;;
32393;SDS011;18853;45.426;9.206;2023-04-01T04:58:18;7.50;;;6.30;;
32393;SDS011;18853;45.426;9.206;2023-04-01T05:00:44;8.93;;;6.75;;
32393;SDS011;18853;45.426;9.206;2023-04-01T05:03:11;8.07;;;6.18;;
32393;SDS011;18853;45.426;9.206;2023-04-01T05:05:37;10.18;;;6.82;;
32393;SDS011;18853;45.426;9.206;2023-04-01T05:08:03;8.50;;;6.25;;
32393;SDS011;18853;45.426;9.206;2023-04-01T05:10:29;8.77;;;5.85;;
32393;SDS011;18853;45.426;9.206;2023-04-01T05:12:56;9.43;;;6.47;;
32393;SDS011;18853;45.426;9.206;2023-04-01T05:15:22;8.43;;;6.18;;
32393;SDS011;18853;45.426;9.206;2023-04-01T05:17:48;7.65;;;6.30;;
32393;SDS011;18853;45.426;9.206;2023-04-01T05:20:14;9.60;;;7.10;;
32393;SDS011;18853;45.426;9.206;2023-04-01T05:22:40;9.48;;;7.00;;
32393;SDS011;18853;45.426;9.206;2023-04-01T05:25:06;9.75;;;6.88;;
32393;SDS011;18853;45.426;9.206;2023-04-01T05:27:32;8.15;;;6.65;;
32393;SDS011;18853;45.426;9.206;2023-04-01T05:29:58;11.35;;;6.97;;
32393;SDS011;18853;45.426;9.206;2023-04-01T05:32:24;8.48;;;7.15;;
32393;SDS011;18853;45.426;9.206;2023-04-01T05:34:50;7.40;;;6.30;;
32393;SDS011;18853;45.426;9.206;2023-04-01T05:37:17;9.45;;;6.22;;
32393;SDS011;18853;45.426;9.206;2023-04-01T05:39:43;8.23;;;6.85;;
32393;SDS011;18853;45.426;9.206;2023-04-01T05:42:08;9.60;;;6.47;;
32393;SDS011;18853;45.426;9.206;2023-04-01T05:44:34;8.43;;;5.68;;
32393;SDS011;18853;45.426;9.206;2023-04-01T05:47:01;8.85;;;5.93;;
32393;SDS011;18853;45.426;9.206;2023-04-01T05:49:27;9.07;;;5.80;;
32393;SDS011;18853;45.426;9.206;2023-04-01T05:51:53;7.78;;;6.45;;
32393;SDS011;18853;45.426;9.206;2023-04-01T05:54:19;9.82;;;6.50;;
32393;SDS011;18853;45.426;9.206;2023-04-01T05:56:45;11.63;;;6.35;;
32393;SDS011;18853;45.426;9.206;2023-04-01T05:59:11;8.63;;;6.57;;
32393;SDS011;18853;45.426;9.206;2023-04-01T06:01:37;8.45;;;6.38;;
32393;SDS011;18853;45.426;9.206;2023-04-01T06:04:03;8.85;;;6.95;;
32393;SDS011;18853;45.426;9.206;2023-04-01T06:06:29;9.75;;;7.05;;
32393;SDS011;18853;45.426;9.206;2023-04-01T06:09:07;9.77;;;7.50;;
32393;SDS011;18853;45.426;9.206;2023-04-01T06:11:44;9.68;;;7.25;;
32393;SDS011;18853;45.426;9.206;2023-04-01T06:37:10;8.80;;;7.47;;
32393;SDS011;18853;45.426;9.206;2023-04-01T06:48:10;9.15;;;6.95;;
32393;SDS011;18853;45.426;9.206;2023-04-01T06:56:19;11.23;;;6.72;;
32393;SDS011;18853;45.426;9.206;2023-04-01T06:58:53;12.02;;;7.00;;
32393;SDS011;18853;45.426;9.206;2023-04-01T07:01:31;8.87;;;6.87;;
32393;SDS011;18853;45.426;9.206;2023-04-01T07:04:14;8.98;;;6.68;;
32393;SDS011;18853;45.426;9.206;2023-04-01T07:07:00;10.00;;;6.70;;
32393;SDS011;18853;45.426;9.206;2023-04-01T07:09:40;9.80;;;7.28;;
32393;SDS011;18853;45.426;9.206;2023-04-01T07:12:47;10.13;;;7.30;;
32393;SDS011;18853;45.426;9.206;2023-04-01T07:15:13;12.35;;;7.65;;
32393;SDS011;18853;45.426;9.206;2023-04-01T07:17:57;9.50;;;7.20;;
32393;SDS011;18853;45.426;9.206;2023-04-01T07:20:29;9.43;;;7.07;;
32393;SDS011;18853;45.426;9.206;2023-04-01T07:23:01;10.77;;;7.15;;
32393;SDS011;18853;45.426;9.206;2023-04-01T07:25:31;9.63;;;7.78;;
32393;SDS011;18853;45.426;9.206;2023-04-01T07:28:05;20.13;;;10.60;;
32393;SDS011;18853;45.426;9.206;2023-04-01T07:31:20;19.88;;;10.57;;
32393;SDS011;18853;45.426;9.206;2023-04-01T07:39:46;19.88;;;9.73;;
32393;SDS011;18853;45.426;9.206;2023-04-01T07:45:07;12.60;;;8.18;;
32393;SDS011;18853;45.426;9.206;2023-04-01T07:55:46;9.70;;;5.72;;
32393;SDS011;18853;45.426;9.206;2023-04-01T08:04:13;8.40;;;5.10;;
32393;SDS011;18853;45.426;9.206;2023-04-01T08:06:43;7.07;;;5.40;;
32393;SDS011;18853;45.426;9.206;2023-04-01T08:09:22;8.80;;;5.30;;
32393;SDS011;18853;45.426;9.206;2023-04-01T08:12:16;9.70;;;5.47;;
32393;SDS011;18853;45.426;9.206;2023-04-01T08:17:54;28.48;;;6.53;;
32393;SDS011;18853;45.426;9.206;2023-04-01T08:22:52;11.27;;;5.85;;
32393;SDS011;18853;45.426;9.206;2023-04-01T08:25:24;13.52;;;6.28;;
32393;SDS011;18853;45.426;9.206;2023-04-01T08:28:13;15.55;;;7.38;;
32393;SDS011;18853;45.426;9.206;2023-04-01T08:30:48;10.65;;;6.03;;
32393;SDS011;18853;45.426;9.206;2023-04-01T08:33:36;10.48;;;5.95;;
32393;SDS011;18853;45.426;9.206;2023-04-01T08:36:14;12.10;;;5.78;;
32393;SDS011;18853;45.426;9.206;2023-04-01T08:38:49;9.48;;;6.13;;
32393;SDS011;18853;45.426;9.206;2023-04-01T08:52:34;10.30;;;4.78;;
32393;SDS011;18853;45.426;9.206;2023-04-01T08:58:29;8.60;;;4.75;;
32393;SDS011;18853;45.426;9.206;2023-04-01T09:03:25;11.63;;;5.07;;
32393;SDS011;18853;45.426;9.206;2023-04-01T09:29:17;15.48;;;10.85;;
32393;SDS011;18853;45.426;9.206;2023-04-01T09:42:54;6.68;;;3.95;;
32393;SDS011;18853;45.426;9.206;2023-04-01T09:45:47;6.18;;;4.30;;
32393;SDS011;18853;45.426;9.206;2023-04-01T09:48:39;6.28;;;4.13;;
32393;SDS011;18853;45.426;9.206;2023-04-01T10:07:22;5.67;;;3.70;;
32393;SDS011;18853;45.426;9.206;2023-04-01T10:16:25;5.45;;;3.70;;
32393;SDS011;18853;45.426;9.206;2023-04-01T10:24:42;8.77;;;4.47;;
32393;SDS011;18853;45.426;9.206;2023-04-01T10:43:57;10.35;;;4.60;;
32393;SDS011;18853;45.426;9.206;2023-04-01T11:00:50;7.10;;;3.53;;
32393;SDS011;18853;45.426;9.206;2023-04-01T11:06:45;8.88;;;4.20;;
32393;SDS011;18853;45.426;9.206;2023-04-01T11:15:11;9.57;;;3.40;;
32393;SDS011;18853;45.426;9.206;2023-04-01T11:20:24;5.57;;;3.40;;
32393;SDS011;18853;45.426;9.206;2023-04-01T11:25:54;4.03;;;2.08;;
32393;SDS011;18853;45.426;9.206;2023-04-01T11:34:05;6.18;;;2.58;;
32393;SDS011;18853;45.426;9.206;2023-04-01T11:44:26;3.30;;;1.77;;
32393;SDS011;18853;45.426;9.206;2023-04-01T11:56:27;2.70;;;0.90;;
32393;SDS011;18853;45.426;9.206;2023-04-01T11:58:36;1.98;;;0.80;;
32393;SDS011;18853;45.426;9.206;2023-04-01T12:01:20;1.45;;;0.50;;
32393;SDS011;18853;45.426;9.206;2023-04-01T12:09:34;1.88;;;0.30;;
32393;SDS011;18853;45.426;9.206;2023-04-01T12:17:29;0.73;;;0.35;;
32393;SDS011;18853;45.426;9.206;2023-04-01T12:42:20;0.45;;;0.10;;
32393;SDS011;18853;45.426;9.206;2023-04-01T12:55:33;0.52;;;0.15;;
32393;SDS011;18853;45.426;9.206;2023-04-01T13:26:25;3.97;;;0.20;;
32393;SDS011;18853;45.426;9.206;2023-04-01T13:37:56;0.75;;;0.22;;
32393;SDS011;18853;45.426;9.206;2023-04-01T13:43:26;2.08;;;0.30;;
32393;SDS011;18853;45.426;9.206;2023-04-01T14:13:31;0.80;;;0.20;;
32393;SDS011;18853;45.426;9.206;2023-04-01T14:18:52;3.33;;;0.20;;
32393;SDS011;18853;45.426;9.206;2023-04-01T14:24:27;0.98;;;0.20;;
32393;SDS011;18853;45.426;9.206;2023-04-01T14:27:01;0.40;;;0.20;;
32393;SDS011;18853;45.426;9.206;2023-04-01T14:32:24;1.30;;;0.20;;
32393;SDS011;18853;45.426;9.206;2023-04-01T14:34:59;0.50;;;0.10;;
32393;SDS011;18853;45.426;9.206;2023-04-01T14:40:33;0.45;;;0.10;;
32393;SDS011;18853;45.426;9.206;2023-04-01T14:43:16;0.52;;;0.10;;
32393;SDS011;18853;45.426;9.206;2023-04-01T14:46:12;2.17;;;0.30;;
32393;SDS011;18853;45.426;9.206;2023-04-01T14:48:53;0.50;;;0.20;;
32393;SDS011;18853;45.426;9.206;2023-04-01T14:51:29;1.27;;;0.20;;
32393;SDS011;18853;45.426;9.206;2023-04-01T14:54:06;0.40;;;0.20;;
32393;SDS011;18853;45.426;9.206;2023-04-01T14:56:37;0.50;;;0.20;;
32393;SDS011;18853;45.426;9.206;2023-04-01T14:59:09;0.95;;;0.10;;
32393;SDS011;18853;45.426;9.206;2023-04-01T15:04:37;1.33;;;0.10;;
32393;SDS011;18853;45.426;9.206;2023-04-01T15:09:59;0.82;;;0.17;;
32393;SDS011;18853;45.426;9.206;2023-04-01T15:29:41;0.57;;;0.20;;
32393;SDS011;18853;45.426;9.206;2023-04-01T15:47:36;3.40;;;0.10;;
32393;SDS011;18853;45.426;9.206;2023-04-01T16:01:07;1.85;;;0.10;;
32393;SDS011;18853;45.426;9.206;2023-04-01T16:03:57;1.05;;;0.30;;
32393;SDS011;18853;45.426;9.206;2023-04-01T16:22:37;0.40;;;0.28;;
32393;SDS011;18853;45.426;9.206;2023-04-01T16:27:57;1.08;;;0.20;;
32393;SDS011;18853;45.426;9.206;2023-04-01T16:30:37;1.35;;;0.20;;
32393;SDS011;18853;45.426;9.206;2023-04-01T16:39:22;0.85;;;0.30;;
32393;SDS011;18853;45.426;9.206;2023-04-01T16:47:36;0.70;;;0.20;;
32393;SDS011;18853;45.426;9.206;2023-04-01T16:50:29;1.27;;;0.30;;
32393;SDS011;18853;45.426;9.206;2023-04-01T16:58:27;0.70;;;0.30;;
32393;SDS011;18853;45.426;9.206;2023-04-01T17:01:02;4.15;;;0.45;;
32393;SDS011;18853;45.426;9.206;2023-04-01T17:03:51;1.08;;;0.20;;
32393;SDS011;18853;45.426;9.206;2023-04-01T17:06:33;2.05;;;0.35;;
32393;SDS011;18853;45.426;9.206;2023-04-01T17:09:15;3.08;;;0.63;;
32393;SDS011;18853;45.426;9.206;2023-04-01T17:14:20;3.10;;;1.80;;
32393;SDS011;18853;45.426;9.206;2023-04-01T17:27:59;1.42;;;0.43;;
32393;SDS011;18853;45.426;9.206;2023-04-01T17:30:37;2.42;;;0.60;;
32393;SDS011;18853;45.426;9.206;2023-04-01T17:33:31;2.33;;;0.98;;
32393;SDS011;18853;45.426;9.206;2023-04-01T17:36:14;0.95;;;0.50;;
32393;SDS011;18853;45.426;9.206;2023-04-01T17:48:08;3.08;;;0.75;;
32393;SDS011;18853;45.426;9.206;2023-04-01T17:56:28;2.67;;;0.88;;
32393;SDS011;18853;45.426;9.206;2023-04-01T17:59:04;2.05;;;0.75;;
32393;SDS011;18853;45.426;9.206;2023-04-01T18:10:17;1.25;;;0.70;;
32393;SDS011;18853;45.426;9.206;2023-04-01T18:21:40;3.97;;;1.10;;
32393;SDS011;18853;45.426;9.206;2023-04-01T18:26:38;3.80;;;1.15;;
32393;SDS011;18853;45.426;9.206;2023-04-01T18:29:23;3.70;;;1.23;;
32393;SDS011;18853;45.426;9.206;2023-04-01T18:32:07;2.55;;;1.35;;
32393;SDS011;18853;45.426;9.206;2023-04-01T18:38:27;5.95;;;1.30;;
32393;SDS011;18853;45.426;9.206;2023-04-01T18:40:50;4.57;;;1.27;;
32393;SDS011;18853;45.426;9.206;2023-04-01T18:43:42;2.45;;;1.02;;
32393;SDS011;18853;45.426;9.206;2023-04-01T18:51:56;4.45;;;1.42;;
32393;SDS011;18853;45.426;9.206;2023-04-01T18:54:41;4.57;;;1.25;;
32393;SDS011;18853;45.426;9.206;2023-04-01T18:57:15;4.78;;;1.20;;
32393;SDS011;18853;45.426;9.206;2023-04-01T18:59:49;2.67;;;1.30;;
32393;SDS011;18853;45.426;9.206;2023-04-01T19:13:42;4.82;;;2.03;;
32393;SDS011;18853;45.426;9.206;2023-04-01T19:18:35;7.40;;;2.80;;
32393;SDS011;18853;45.426;9.206;2023-04-01T19:24:01;4.53;;;1.88;;
32393;SDS011;18853;45.426;9.206;2023-04-01T19:29:25;5.15;;;2.40;;
32393;SDS011;18853;45.426;9.206;2023-04-01T19:32:00;8.95;;;2.45;;
32393;SDS011;18853;45.426;9.206;2023-04-01T19:50:41;7.57;;;3.33;;
32393;SDS011;18853;45.426;9.206;2023-04-01T19:59:03;7.40;;;4.05;;
32393;SDS011;18853;45.426;9.206;2023-04-01T20:04:43;9.00;;;4.20;;
32393;SDS011;18853;45.426;9.206;2023-04-01T20:07:25;9.07;;;3.90;;
32393;SDS011;18853;45.426;9.206;2023-04-01T20:10:09;7.53;;;3.38;;
32393;SDS011;18853;45.426;9.206;2023-04-01T20:12:46;8.20;;;2.70;;
32393;SDS011;18853;45.426;9.206;2023-04-01T20:18:17;5.45;;;2.75;;
32393;SDS011;18853;45.426;9.206;2023-04-01T20:20:54;4.93;;;2.20;;
32393;SDS011;18853;45.426;9.206;2023-04-01T20:23:34;4.53;;;2.00;;
32393;SDS011;18853;45.426;9.206;2023-04-01T20:26:13;5.22;;;1.60;;
32393;SDS011;18853;45.426;9.206;2023-04-01T20:29:02;3.08;;;1.33;;
32393;SDS011;18853;45.426;9.206;2023-04-01T20:32:01;2.72;;;1.30;;
32393;SDS011;18853;45.426;9.206;2023-04-01T20:35:25;4.38;;;1.50;;
32393;SDS011;18853;45.426;9.206;2023-04-01T20:40:54;3.10;;;1.30;;
32393;SDS011;18853;45.426;9.206;2023-04-01T20:51:31;2.03;;;0.90;;
32393;SDS011;18853;45.426;9.206;2023-04-01T21:11:58;2.33;;;0.98;;
32393;SDS011;18853;45.426;9.206;2023-04-01T21:14:51;2.85;;;1.00;;
32393;SDS011;18853;45.426;9.206;2023-04-01T21:32:02;1.85;;;0.93;;
32393;SDS011;18853;45.426;9.206;2023-04-01T21:49:07;2.97;;;1.00;;
32393;SDS011;18853;45.426;9.206;2023-04-01T22:05:47;4.45;;;1.13;;
32393;SDS011;18853;45.426;9.206;2023-04-01T22:11:20;3.00;;;1.05;;
32393;SDS011;18853;45.426;9.206;2023-04-01T22:13:59;3.13;;;0.95;;
32393;SDS011;18853;45.426;9.206;2023-04-01T22:16:55;2.92;;;1.25;;
32393;SDS011;18853;45.426;9.206;2023-04-01T22:27:36;3.42;;;0.93;;
32393;SDS011;18853;45.426;9.206;2023-04-01T22:30:23;2.78;;;0.90;;
32393;SDS011;18853;45.426;9.206;2023-04-01T22:41:11;2.83;;;0.85;;
32393;SDS011;18853;45.426;9.206;2023-04-01T22:43:40;2.13;;;0.70;;
32393;SDS011;18853;45.426;9.206;2023-04-01T22:48:46;3.38;;;1.05;;
32393;SDS011;18853;45.426;9.206;2023-04-01T22:53:56;4.82;;;1.08;;
32393;SDS011;18853;45.426;9.206;2023-04-01T22:57:01;3.83;;;1.02;;
32393;SDS011;18853;45.426;9.206;2023-04-01T23:02:11;2.72;;;1.05;;
32393;SDS011;18853;45.426;9.206;2023-04-01T23:04:47;3.38;;;1.15;;
32393;SDS011;18853;45.426;9.206;2023-04-01T23:13:04;3.13;;;1.10;;
32393;SDS011;18853;45.426;9.206;2023-04-01T23:15:35;2.30;;;0.90;;
32393;SDS011;18853;45.426;9.206;2023-04-01T23:26:00;3.58;;;1.33;;
32393;SDS011;18853;45.426;9.206;2023-04-01T23:28:44;7.20;;;1.35;;
32393;SDS011;18853;45.426;9.206;2023-04-01T23:33:57;4.60;;;1.42;;
32393;SDS011;18853;45.426;9.206;2023-04-01T23:36:25;3.08;;;1.30;;
32393;SDS011;18853;45.426;9.206;2023-04-01T23:38:52;4.63;;;1.23;;
32393;SDS011;18853;45.426;9.206;2023-04-01T23:41:26;3.08;;;1.42;;
32393;SDS011;18853;45.426;9.206;2023-04-01T23:46:33;3.22;;;1.50;;
32393;SDS011;18853;45.426;9.206;2023-04-01T23:49:00;3.42;;;1.42;;
32393;SDS011;18853;45.426;9.206;2023-04-01T23:51:29;3.28;;;1.40;;
32393;SDS011;18853;45.426;9.206;2023-04-01T23:56:51;4.28;;;1.55;;
32393;SDS011;18853;45.426;9.206;2023-04-01T23:59:30;6.15;;;1.67;;
